sensor_id;sensor_type;location;lat;lon;timestamp;temperature;humidity
10419;DHT22;5256;48.728;9.140;2023-08-08T00:01:24;11.30;99.90
10419;DHT22;5256;48.728;9.140;2023-08-08T00:03:49;11.20;99.90
10419;DHT22;5256;48.728;9.140;2023-08-08T00:06:15;11.20;99.90
10419;DHT22;5256;48.728;9.140;2023-08-08T00:08:40;11.20;99.90
10419;DHT22;5256;48.728;9.140;2023-08-08T00:11:06;11.30;99.90
10419;DHT22;5256;48.728;9.140;2023-08-08T00:13:32;11.40;99.90
10419;DHT22;5256;48.728;9.140;2023-08-08T00:15:58;11.60;99.90
10419;DHT22;5256;48.728;9.140;2023-08-08T00:18:23;11.70;99.90
10419;DHT22;5256;48.728;9.140;2023-08-08T00:20:49;11.70;99.90
10419;DHT22;5256;48.728;9.140;2023-08-08T00:23:14;11.80;99.90
10419;DHT22;5256;48.728;9.140;2023-08-08T00:25:40;11.90;99.90
10419;DHT22;5256;48.728;9.140;2023-08-08T00:28:06;12.00;99.90
10419;DHT22;5256;48.728;9.140;2023-08-08T00:30:32;12.00;99.90
10419;DHT22;5256;48.728;9.140;2023-08-08T00:32:57;12.00;99.90
10419;DHT22;5256;48.728;9.140;2023-08-08T00:35:23;12.00;99.90
10419;DHT22;5256;48.728;9.140;2023-08-08T00:37:49;12.10;99.90
10419;DHT22;5256;48.728;9.140;2023-08-08T00:40:14;12.10;99.90
10419;DHT22;5256;48.728;9.140;2023-08-08T00:42:40;12.20;99.90
10419;DHT22;5256;48.728;9.140;2023-08-08T00:45:06;12.30;99.90
10419;DHT22;5256;48.728;9.140;2023-08-08T00:47:34;12.40;99.90
10419;DHT22;5256;48.728;9.140;2023-08-08T00:50:01;12.50;99.90
10419;DHT22;5256;48.728;9.140;2023-08-08T00:52:28;12.50;99.90
10419;DHT22;5256;48.728;9.140;2023-08-08T00:54:54;12.60;99.90
10419;DHT22;5256;48.728;9.140;2023-08-08T00:57:19;12.60;99.90
10419;DHT22;5256;48.728;9.140;2023-08-08T00:59:45;12.60;99.90
10419;DHT22;5256;48.728;9.140;2023-08-08T01:02:11;12.60;99.90
10419;DHT22;5256;48.728;9.140;2023-08-08T01:04:37;12.50;99.90
10419;DHT22;5256;48.728;9.140;2023-08-08T01:10:00;12.60;99.90
10419;DHT22;5256;48.728;9.140;2023-08-08T01:12:34;12.60;99.90
10419;DHT22;5256;48.728;9.140;2023-08-08T01:15:04;12.60;99.90
10419;DHT22;5256;48.728;9.140;2023-08-08T01:17:31;12.60;99.90
10419;DHT22;5256;48.728;9.140;2023-08-08T01:19:57;12.60;99.90
10419;DHT22;5256;48.728;9.140;2023-08-08T01:22:32;12.70;99.90
10419;DHT22;5256;48.728;9.140;2023-08-08T01:25:01;12.70;99.90
10419;DHT22;5256;48.728;9.140;2023-08-08T01:27:28;12.70;99.90
10419;DHT22;5256;48.728;9.140;2023-08-08T01:29:53;12.80;99.90
10419;DHT22;5256;48.728;9.140;2023-08-08T01:32:19;12.80;99.90
10419;DHT22;5256;48.728;9.140;2023-08-08T01:34:45;12.80;99.90
10419;DHT22;5256;48.728;9.140;2023-08-08T01:37:18;12.80;99.90
10419;DHT22;5256;48.728;9.140;2023-08-08T01:39:46;12.70;99.90
10419;DHT22;5256;48.728;9.140;2023-08-08T01:42:12;12.70;99.90
10419;DHT22;5256;48.728;9.140;2023-08-08T01:44:41;12.70;99.90
10419;DHT22;5256;48.728;9.140;2023-08-08T01:47:07;12.60;99.90
10419;DHT22;5256;48.728;9.140;2023-08-08T01:49:33;12.60;99.90
10419;DHT22;5256;48.728;9.140;2023-08-08T01:51:59;12.60;99.90
10419;DHT22;5256;48.728;9.140;2023-08-08T01:54:24;12.60;99.90
10419;DHT22;5256;48.728;9.140;2023-08-08T01:56:50;12.60;99.90
10419;DHT22;5256;48.728;9.140;2023-08-08T01:59:15;12.70;99.90
10419;DHT22;5256;48.728;9.140;2023-08-08T02:01:41;12.60;99.90
10419;DHT22;5256;48.728;9.140;2023-08-08T02:04:07;12.60;99.90
10419;DHT22;5256;48.728;9.140;2023-08-08T02:06:32;12.60;99.90
10419;DHT22;5256;48.728;9.140;2023-08-08T02:08:58;12.60;99.90
10419;DHT22;5256;48.728;9.140;2023-08-08T02:11:23;12.50;99.90
10419;DHT22;5256;48.728;9.140;2023-08-08T02:13:49;12.50;99.90
10419;DHT22;5256;48.728;9.140;2023-08-08T02:16:15;12.50;99.90
10419;DHT22;5256;48.728;9.140;2023-08-08T02:18:40;12.50;99.90
10419;DHT22;5256;48.728;9.140;2023-08-08T02:21:07;12.50;99.90
10419;DHT22;5256;48.728;9.140;2023-08-08T02:23:33;12.40;99.90
10419;DHT22;5256;48.728;9.140;2023-08-08T02:26:00;12.40;99.90
10419;DHT22;5256;48.728;9.140;2023-08-08T02:28:26;12.30;99.90
10419;DHT22;5256;48.728;9.140;2023-08-08T02:30:51;12.30;99.90
10419;DHT22;5256;48.728;9.140;2023-08-08T02:33:18;12.30;99.90
10419;DHT22;5256;48.728;9.140;2023-08-08T02:35:43;12.30;99.90
10419;DHT22;5256;48.728;9.140;2023-08-08T02:38:09;12.20;99.90
10419;DHT22;5256;48.728;9.140;2023-08-08T02:40:34;12.20;99.90
10419;DHT22;5256;48.728;9.140;2023-08-08T02:43:00;12.20;99.90
10419;DHT22;5256;48.728;9.140;2023-08-08T02:45:26;12.20;99.90
10419;DHT22;5256;48.728;9.140;2023-08-08T02:47:51;12.20;99.90
10419;DHT22;5256;48.728;9.140;2023-08-08T02:50:17;12.20;99.90
10419;DHT22;5256;48.728;9.140;2023-08-08T02:52:42;12.20;99.90
10419;DHT22;5256;48.728;9.140;2023-08-08T02:55:08;12.10;99.90
10419;DHT22;5256;48.728;9.140;2023-08-08T02:57:34;12.10;99.90
10419;DHT22;5256;48.728;9.140;2023-08-08T02:59:59;12.20;99.90
10419;DHT22;5256;48.728;9.140;2023-08-08T03:02:25;12.10;99.90
10419;DHT22;5256;48.728;9.140;2023-08-08T03:04:51;12.10;99.90
10419;DHT22;5256;48.728;9.140;2023-08-08T03:07:16;12.00;99.90
10419;DHT22;5256;48.728;9.140;2023-08-08T03:09:42;12.00;99.90
10419;DHT22;5256;48.728;9.140;2023-08-08T03:12:08;11.90;99.90
10419;DHT22;5256;48.728;9.140;2023-08-08T03:14:33;11.90;99.90
10419;DHT22;5256;48.728;9.140;2023-08-08T03:16:59;11.90;99.90
10419;DHT22;5256;48.728;9.140;2023-08-08T03:19:25;11.90;99.90
10419;DHT22;5256;48.728;9.140;2023-08-08T03:21:51;11.90;99.90
10419;DHT22;5256;48.728;9.140;2023-08-08T03:24:16;11.80;99.90
10419;DHT22;5256;48.728;9.140;2023-08-08T03:26:42;11.80;99.90
10419;DHT22;5256;48.728;9.140;2023-08-08T03:29:07;11.80;99.90
10419;DHT22;5256;48.728;9.140;2023-08-08T03:31:36;11.80;99.90
10419;DHT22;5256;48.728;9.140;2023-08-08T03:34:02;11.80;99.90
10419;DHT22;5256;48.728;9.140;2023-08-08T03:36:28;11.80;99.90
10419;DHT22;5256;48.728;9.140;2023-08-08T03:38:54;11.90;99.90
10419;DHT22;5256;48.728;9.140;2023-08-08T03:41:19;11.90;99.90
10419;DHT22;5256;48.728;9.140;2023-08-08T03:43:45;12.00;99.90
10419;DHT22;5256;48.728;9.140;2023-08-08T03:46:11;12.10;99.90
10419;DHT22;5256;48.728;9.140;2023-08-08T03:48:37;12.10;99.90
10419;DHT22;5256;48.728;9.140;2023-08-08T03:51:03;12.10;99.90
10419;DHT22;5256;48.728;9.140;2023-08-08T03:53:29;12.10;99.90
10419;DHT22;5256;48.728;9.140;2023-08-08T03:55:54;12.20;99.90
10419;DHT22;5256;48.728;9.140;2023-08-08T03:58:20;12.30;99.90
10419;DHT22;5256;48.728;9.140;2023-08-08T04:00:45;12.40;99.90
10419;DHT22;5256;48.728;9.140;2023-08-08T04:03:15;12.40;99.90
10419;DHT22;5256;48.728;9.140;2023-08-08T04:05:44;12.50;99.90
10419;DHT22;5256;48.728;9.140;2023-08-08T04:08:11;12.60;99.90
10419;DHT22;5256;48.728;9.140;2023-08-08T04:10:37;12.60;99.90
10419;DHT22;5256;48.728;9.140;2023-08-08T04:13:02;12.70;99.90
10419;DHT22;5256;48.728;9.140;2023-08-08T04:15:28;12.70;99.90
10419;DHT22;5256;48.728;9.140;2023-08-08T04:17:54;12.80;99.90
10419;DHT22;5256;48.728;9.140;2023-08-08T04:20:19;12.80;99.90
10419;DHT22;5256;48.728;9.140;2023-08-08T04:22:45;12.80;99.90
10419;DHT22;5256;48.728;9.140;2023-08-08T04:25:10;12.90;99.90
10419;DHT22;5256;48.728;9.140;2023-08-08T04:27:36;12.90;99.90
10419;DHT22;5256;48.728;9.140;2023-08-08T04:30:02;12.90;99.90
10419;DHT22;5256;48.728;9.140;2023-08-08T04:32:28;12.80;99.90
10419;DHT22;5256;48.728;9.140;2023-08-08T04:34:54;12.90;99.90
10419;DHT22;5256;48.728;9.140;2023-08-08T04:37:19;12.80;99.90
10419;DHT22;5256;48.728;9.140;2023-08-08T04:39:45;12.70;99.90
10419;DHT22;5256;48.728;9.140;2023-08-08T04:42:10;12.70;99.90
10419;DHT22;5256;48.728;9.140;2023-08-08T04:44:36;12.70;99.90
10419;DHT22;5256;48.728;9.140;2023-08-08T04:47:01;12.70;99.90
10419;DHT22;5256;48.728;9.140;2023-08-08T04:49:27;12.60;99.90
10419;DHT22;5256;48.728;9.140;2023-08-08T04:51:54;12.60;99.90
10419;DHT22;5256;48.728;9.140;2023-08-08T04:54:19;12.60;99.90
10419;DHT22;5256;48.728;9.140;2023-08-08T04:56:45;12.60;99.90
10419;DHT22;5256;48.728;9.140;2023-08-08T04:59:10;12.60;99.90
10419;DHT22;5256;48.728;9.140;2023-08-08T05:01:36;12.60;99.90
10419;DHT22;5256;48.728;9.140;2023-08-08T05:04:01;12.60;99.90
10419;DHT22;5256;48.728;9.140;2023-08-08T05:06:27;12.70;99.90
10419;DHT22;5256;48.728;9.140;2023-08-08T05:08:52;12.70;99.90
10419;DHT22;5256;48.728;9.140;2023-08-08T05:11:18;12.90;99.90
10419;DHT22;5256;48.728;9.140;2023-08-08T05:13:44;13.00;99.90
10419;DHT22;5256;48.728;9.140;2023-08-08T05:16:09;12.90;99.90
10419;DHT22;5256;48.728;9.140;2023-08-08T05:18:35;13.00;99.90
10419;DHT22;5256;48.728;9.140;2023-08-08T05:21:00;13.20;99.90
10419;DHT22;5256;48.728;9.140;2023-08-08T05:23:26;13.30;99.90
10419;DHT22;5256;48.728;9.140;2023-08-08T05:25:51;13.40;99.90
10419;DHT22;5256;48.728;9.140;2023-08-08T05:28:17;13.40;99.90
10419;DHT22;5256;48.728;9.140;2023-08-08T05:30:42;13.40;99.90
10419;DHT22;5256;48.728;9.140;2023-08-08T05:33:08;13.40;99.90
10419;DHT22;5256;48.728;9.140;2023-08-08T05:35:33;13.40;99.90
10419;DHT22;5256;48.728;9.140;2023-08-08T05:37:59;13.30;99.90
10419;DHT22;5256;48.728;9.140;2023-08-08T05:40:25;13.20;99.90
10419;DHT22;5256;48.728;9.140;2023-08-08T05:42:50;13.20;99.90
10419;DHT22;5256;48.728;9.140;2023-08-08T05:45:16;13.20;99.90
10419;DHT22;5256;48.728;9.140;2023-08-08T05:47:41;13.40;99.90
10419;DHT22;5256;48.728;9.140;2023-08-08T05:50:07;14.00;99.90
10419;DHT22;5256;48.728;9.140;2023-08-08T05:52:33;14.50;99.90
10419;DHT22;5256;48.728;9.140;2023-08-08T05:54:58;15.10;99.90
10419;DHT22;5256;48.728;9.140;2023-08-08T05:57:25;15.60;99.90
10419;DHT22;5256;48.728;9.140;2023-08-08T05:59:51;16.30;99.90
10419;DHT22;5256;48.728;9.140;2023-08-08T06:02:16;16.80;99.90
10419;DHT22;5256;48.728;9.140;2023-08-08T06:04:42;17.40;99.90
10419;DHT22;5256;48.728;9.140;2023-08-08T06:07:08;17.70;99.90
10419;DHT22;5256;48.728;9.140;2023-08-08T06:09:33;17.50;99.90
10419;DHT22;5256;48.728;9.140;2023-08-08T06:11:59;17.60;99.90
10419;DHT22;5256;48.728;9.140;2023-08-08T06:14:25;17.60;99.90
10419;DHT22;5256;48.728;9.140;2023-08-08T06:16:50;17.60;99.90
10419;DHT22;5256;48.728;9.140;2023-08-08T06:19:16;17.60;99.90
10419;DHT22;5256;48.728;9.140;2023-08-08T06:21:42;18.00;99.90
10419;DHT22;5256;48.728;9.140;2023-08-08T06:24:07;18.20;99.90
10419;DHT22;5256;48.728;9.140;2023-08-08T06:26:33;18.30;99.90
10419;DHT22;5256;48.728;9.140;2023-08-08T06:28:59;18.30;99.90
10419;DHT22;5256;48.728;9.140;2023-08-08T06:31:24;18.30;99.90
10419;DHT22;5256;48.728;9.140;2023-08-08T06:33:50;18.10;99.90
10419;DHT22;5256;48.728;9.140;2023-08-08T06:36:16;17.80;99.90
10419;DHT22;5256;48.728;9.140;2023-08-08T06:38:41;17.50;99.90
10419;DHT22;5256;48.728;9.140;2023-08-08T06:41:08;17.50;99.90
10419;DHT22;5256;48.728;9.140;2023-08-08T06:43:33;17.50;99.90
10419;DHT22;5256;48.728;9.140;2023-08-08T06:45:59;17.40;99.90
10419;DHT22;5256;48.728;9.140;2023-08-08T06:48:24;17.20;99.90
10419;DHT22;5256;48.728;9.140;2023-08-08T06:50:50;17.30;99.90
10419;DHT22;5256;48.728;9.140;2023-08-08T06:53:15;17.60;99.90
10419;DHT22;5256;48.728;9.140;2023-08-08T06:55:41;17.70;99.90
10419;DHT22;5256;48.728;9.140;2023-08-08T06:58:06;17.90;99.90
10419;DHT22;5256;48.728;9.140;2023-08-08T07:00:32;18.20;99.90
10419;DHT22;5256;48.728;9.140;2023-08-08T07:02:58;18.50;99.90
10419;DHT22;5256;48.728;9.140;2023-08-08T07:05:23;18.60;99.90
10419;DHT22;5256;48.728;9.140;2023-08-08T07:07:52;18.80;99.90
10419;DHT22;5256;48.728;9.140;2023-08-08T07:10:18;18.80;99.90
10419;DHT22;5256;48.728;9.140;2023-08-08T07:12:44;18.90;99.90
10419;DHT22;5256;48.728;9.140;2023-08-08T07:15:10;18.80;99.90
10419;DHT22;5256;48.728;9.140;2023-08-08T07:17:35;18.70;99.90
10419;DHT22;5256;48.728;9.140;2023-08-08T07:20:01;18.90;99.90
10419;DHT22;5256;48.728;9.140;2023-08-08T07:22:27;19.00;99.90
10419;DHT22;5256;48.728;9.140;2023-08-08T07:24:53;19.20;99.90
10419;DHT22;5256;48.728;9.140;2023-08-08T07:27:18;19.40;99.90
10419;DHT22;5256;48.728;9.140;2023-08-08T07:29:44;19.60;99.90
10419;DHT22;5256;48.728;9.140;2023-08-08T07:32:10;19.80;99.90
10419;DHT22;5256;48.728;9.140;2023-08-08T07:34:35;19.70;99.90
10419;DHT22;5256;48.728;9.140;2023-08-08T07:37:01;19.70;99.90
10419;DHT22;5256;48.728;9.140;2023-08-08T07:39:28;19.90;99.90
10419;DHT22;5256;48.728;9.140;2023-08-08T07:41:53;19.80;99.90
10419;DHT22;5256;48.728;9.140;2023-08-08T07:44:19;19.70;99.90
10419;DHT22;5256;48.728;9.140;2023-08-08T07:46:45;19.90;99.90
10419;DHT22;5256;48.728;9.140;2023-08-08T07:49:10;20.30;99.90
10419;DHT22;5256;48.728;9.140;2023-08-08T07:51:36;20.20;99.90
10419;DHT22;5256;48.728;9.140;2023-08-08T07:54:02;20.20;99.90
10419;DHT22;5256;48.728;9.140;2023-08-08T07:56:28;19.90;99.90
10419;DHT22;5256;48.728;9.140;2023-08-08T07:58:53;19.60;99.90
10419;DHT22;5256;48.728;9.140;2023-08-08T08:01:19;19.70;99.90
10419;DHT22;5256;48.728;9.140;2023-08-08T08:03:45;19.90;99.90
10419;DHT22;5256;48.728;9.140;2023-08-08T08:06:11;19.80;99.90
10419;DHT22;5256;48.728;9.140;2023-08-08T08:08:37;19.80;99.90
10419;DHT22;5256;48.728;9.140;2023-08-08T08:11:03;19.60;99.90
10419;DHT22;5256;48.728;9.140;2023-08-08T08:13:28;19.70;99.90
10419;DHT22;5256;48.728;9.140;2023-08-08T08:15:54;19.80;99.90
10419;DHT22;5256;48.728;9.140;2023-08-08T08:18:19;20.00;99.90
10419;DHT22;5256;48.728;9.140;2023-08-08T08:20:46;19.90;99.90
10419;DHT22;5256;48.728;9.140;2023-08-08T08:23:12;19.80;99.90
10419;DHT22;5256;48.728;9.140;2023-08-08T08:25:37;19.60;99.90
10419;DHT22;5256;48.728;9.140;2023-08-08T08:28:03;19.50;99.90
10419;DHT22;5256;48.728;9.140;2023-08-08T08:30:28;19.40;99.90
10419;DHT22;5256;48.728;9.140;2023-08-08T08:32:54;19.50;99.90
10419;DHT22;5256;48.728;9.140;2023-08-08T08:35:22;19.80;99.90
10419;DHT22;5256;48.728;9.140;2023-08-08T08:37:47;20.30;99.90
10419;DHT22;5256;48.728;9.140;2023-08-08T08:40:13;20.50;99.90
10419;DHT22;5256;48.728;9.140;2023-08-08T08:42:39;20.50;99.90
10419;DHT22;5256;48.728;9.140;2023-08-08T08:45:06;19.90;99.90
10419;DHT22;5256;48.728;9.140;2023-08-08T08:47:36;19.60;99.90
10419;DHT22;5256;48.728;9.140;2023-08-08T08:50:02;19.80;99.90
10419;DHT22;5256;48.728;9.140;2023-08-08T08:52:29;20.10;99.90
10419;DHT22;5256;48.728;9.140;2023-08-08T08:54:55;20.10;99.90
10419;DHT22;5256;48.728;9.140;2023-08-08T08:57:23;20.30;99.90
10419;DHT22;5256;48.728;9.140;2023-08-08T08:59:50;20.00;99.90
10419;DHT22;5256;48.728;9.140;2023-08-08T09:02:16;19.80;99.90
10419;DHT22;5256;48.728;9.140;2023-08-08T09:04:43;20.00;99.90
10419;DHT22;5256;48.728;9.140;2023-08-08T09:07:09;20.20;99.90
10419;DHT22;5256;48.728;9.140;2023-08-08T09:09:35;20.80;99.90
10419;DHT22;5256;48.728;9.140;2023-08-08T09:12:03;21.50;99.90
10419;DHT22;5256;48.728;9.140;2023-08-08T09:14:31;21.90;99.90
10419;DHT22;5256;48.728;9.140;2023-08-08T09:16:57;21.50;99.90
10419;DHT22;5256;48.728;9.140;2023-08-08T09:19:23;21.70;99.90
10419;DHT22;5256;48.728;9.140;2023-08-08T09:21:51;21.60;99.90
10419;DHT22;5256;48.728;9.140;2023-08-08T09:24:17;21.10;99.90
10419;DHT22;5256;48.728;9.140;2023-08-08T09:26:44;20.90;99.90
10419;DHT22;5256;48.728;9.140;2023-08-08T09:29:11;21.00;99.90
10419;DHT22;5256;48.728;9.140;2023-08-08T09:31:37;20.80;99.90
10419;DHT22;5256;48.728;9.140;2023-08-08T09:34:04;20.90;99.90
10419;DHT22;5256;48.728;9.140;2023-08-08T09:36:30;20.60;99.90
10419;DHT22;5256;48.728;9.140;2023-08-08T09:38:56;20.70;99.90
10419;DHT22;5256;48.728;9.140;2023-08-08T09:41:22;20.70;99.90
10419;DHT22;5256;48.728;9.140;2023-08-08T09:43:49;21.00;99.90
10419;DHT22;5256;48.728;9.140;2023-08-08T09:46:15;21.50;99.90
10419;DHT22;5256;48.728;9.140;2023-08-08T09:48:42;21.40;99.90
10419;DHT22;5256;48.728;9.140;2023-08-08T09:51:09;21.20;99.90
10419;DHT22;5256;48.728;9.140;2023-08-08T09:53:35;21.30;99.90
10419;DHT22;5256;48.728;9.140;2023-08-08T09:56:04;21.50;99.90
10419;DHT22;5256;48.728;9.140;2023-08-08T09:58:31;21.80;99.90
10419;DHT22;5256;48.728;9.140;2023-08-08T10:00:57;21.50;99.90
10419;DHT22;5256;48.728;9.140;2023-08-08T10:03:22;21.10;99.90
10419;DHT22;5256;48.728;9.140;2023-08-08T10:05:48;20.90;99.90
10419;DHT22;5256;48.728;9.140;2023-08-08T10:08:17;20.60;99.90
10419;DHT22;5256;48.728;9.140;2023-08-08T10:10:45;20.40;99.90
10419;DHT22;5256;48.728;9.140;2023-08-08T10:13:22;20.50;99.90
10419;DHT22;5256;48.728;9.140;2023-08-08T10:15:48;21.00;99.90
10419;DHT22;5256;48.728;9.140;2023-08-08T10:18:14;21.40;99.90
10419;DHT22;5256;48.728;9.140;2023-08-08T10:20:42;21.60;99.90
10419;DHT22;5256;48.728;9.140;2023-08-08T10:23:09;21.30;99.90
10419;DHT22;5256;48.728;9.140;2023-08-08T10:25:34;21.10;99.90
10419;DHT22;5256;48.728;9.140;2023-08-08T10:28:11;21.70;99.90
10419;DHT22;5256;48.728;9.140;2023-08-08T10:31:05;22.00;99.90
10419;DHT22;5256;48.728;9.140;2023-08-08T10:33:41;21.70;99.20
10419;DHT22;5256;48.728;9.140;2023-08-08T10:36:08;21.20;99.60
10419;DHT22;5256;48.728;9.140;2023-08-08T10:38:42;21.30;99.70
10419;DHT22;5256;48.728;9.140;2023-08-08T10:41:13;21.50;99.30
10419;DHT22;5256;48.728;9.140;2023-08-08T10:43:50;21.20;99.00
10419;DHT22;5256;48.728;9.140;2023-08-08T10:48:57;21.60;99.90
10419;DHT22;5256;48.728;9.140;2023-08-08T10:51:38;21.70;98.20
10419;DHT22;5256;48.728;9.140;2023-08-08T10:54:06;21.90;98.10
10419;DHT22;5256;48.728;9.140;2023-08-08T10:56:31;22.10;97.80
10419;DHT22;5256;48.728;9.140;2023-08-08T10:58:57;22.10;98.00
10419;DHT22;5256;48.728;9.140;2023-08-08T11:01:26;21.60;97.60
10419;DHT22;5256;48.728;9.140;2023-08-08T11:03:52;21.50;98.30
10419;DHT22;5256;48.728;9.140;2023-08-08T11:06:18;21.50;97.70
10419;DHT22;5256;48.728;9.140;2023-08-08T11:08:44;21.80;97.40
10419;DHT22;5256;48.728;9.140;2023-08-08T11:11:10;21.70;97.10
10419;DHT22;5256;48.728;9.140;2023-08-08T11:13:35;21.50;97.30
10419;DHT22;5256;48.728;9.140;2023-08-08T11:16:01;21.40;97.30
10419;DHT22;5256;48.728;9.140;2023-08-08T11:18:27;21.40;97.10
10419;DHT22;5256;48.728;9.140;2023-08-08T11:20:53;21.20;96.70
10419;DHT22;5256;48.728;9.140;2023-08-08T11:23:19;21.10;96.90
10419;DHT22;5256;48.728;9.140;2023-08-08T11:25:47;20.90;96.10
10419;DHT22;5256;48.728;9.140;2023-08-08T11:28:14;21.10;96.10
10419;DHT22;5256;48.728;9.140;2023-08-08T11:30:42;21.20;96.20
10419;DHT22;5256;48.728;9.140;2023-08-08T11:33:09;21.30;96.50
10419;DHT22;5256;48.728;9.140;2023-08-08T11:35:35;21.40;96.70
10419;DHT22;5256;48.728;9.140;2023-08-08T11:38:02;21.60;95.60
10419;DHT22;5256;48.728;9.140;2023-08-08T11:40:28;21.90;96.30
10419;DHT22;5256;48.728;9.140;2023-08-08T11:42:55;22.00;96.20
10419;DHT22;5256;48.728;9.140;2023-08-08T11:45:24;22.00;96.30
10419;DHT22;5256;48.728;9.140;2023-08-08T11:47:52;22.20;95.70
10419;DHT22;5256;48.728;9.140;2023-08-08T11:50:20;21.90;95.70
10419;DHT22;5256;48.728;9.140;2023-08-08T11:52:46;21.80;96.00
10419;DHT22;5256;48.728;9.140;2023-08-08T11:55:12;21.90;96.00
10419;DHT22;5256;48.728;9.140;2023-08-08T11:57:39;22.10;95.20
10419;DHT22;5256;48.728;9.140;2023-08-08T12:00:07;22.10;94.50
10419;DHT22;5256;48.728;9.140;2023-08-08T12:02:34;22.10;94.70
10419;DHT22;5256;48.728;9.140;2023-08-08T12:05:08;22.10;94.40
10419;DHT22;5256;48.728;9.140;2023-08-08T12:07:35;22.30;95.30
10419;DHT22;5256;48.728;9.140;2023-08-08T12:10:03;22.20;95.00
10419;DHT22;5256;48.728;9.140;2023-08-08T12:12:31;22.00;94.50
10419;DHT22;5256;48.728;9.140;2023-08-08T12:14:58;21.70;94.40
10419;DHT22;5256;48.728;9.140;2023-08-08T12:17:23;21.60;94.90
10419;DHT22;5256;48.728;9.140;2023-08-08T12:19:49;21.50;95.30
10419;DHT22;5256;48.728;9.140;2023-08-08T12:22:14;21.70;95.90
10419;DHT22;5256;48.728;9.140;2023-08-08T12:24:40;22.00;95.80
10419;DHT22;5256;48.728;9.140;2023-08-08T12:27:06;22.10;94.80
10419;DHT22;5256;48.728;9.140;2023-08-08T12:29:31;21.80;95.00
10419;DHT22;5256;48.728;9.140;2023-08-08T12:31:57;21.80;95.40
10419;DHT22;5256;48.728;9.140;2023-08-08T12:34:22;21.60;95.50
10419;DHT22;5256;48.728;9.140;2023-08-08T12:36:48;21.40;96.00
10419;DHT22;5256;48.728;9.140;2023-08-08T12:39:14;21.50;96.60
10419;DHT22;5256;48.728;9.140;2023-08-08T12:41:39;21.40;96.00
10419;DHT22;5256;48.728;9.140;2023-08-08T12:44:05;21.20;96.80
10419;DHT22;5256;48.728;9.140;2023-08-08T12:46:32;21.30;96.70
10419;DHT22;5256;48.728;9.140;2023-08-08T12:48:58;21.40;97.00
10419;DHT22;5256;48.728;9.140;2023-08-08T12:51:23;21.60;97.00
10419;DHT22;5256;48.728;9.140;2023-08-08T12:53:50;21.70;97.00
10419;DHT22;5256;48.728;9.140;2023-08-08T12:56:15;21.60;96.40
10419;DHT22;5256;48.728;9.140;2023-08-08T12:58:41;21.80;96.30
10419;DHT22;5256;48.728;9.140;2023-08-08T13:01:06;22.10;97.40
10419;DHT22;5256;48.728;9.140;2023-08-08T13:03:33;22.40;96.70
10419;DHT22;5256;48.728;9.140;2023-08-08T13:06:00;22.40;96.40
10419;DHT22;5256;48.728;9.140;2023-08-08T13:08:25;22.40;96.20
10419;DHT22;5256;48.728;9.140;2023-08-08T13:10:51;22.30;96.10
10419;DHT22;5256;48.728;9.140;2023-08-08T13:13:16;22.00;95.70
10419;DHT22;5256;48.728;9.140;2023-08-08T13:15:42;21.70;95.80
10419;DHT22;5256;48.728;9.140;2023-08-08T13:18:08;21.50;96.40
10419;DHT22;5256;48.728;9.140;2023-08-08T13:20:34;21.10;96.50
10419;DHT22;5256;48.728;9.140;2023-08-08T13:22:59;20.80;97.10
10419;DHT22;5256;48.728;9.140;2023-08-08T13:25:25;20.70;97.40
10419;DHT22;5256;48.728;9.140;2023-08-08T13:27:50;20.60;97.60
10419;DHT22;5256;48.728;9.140;2023-08-08T13:30:16;20.70;97.50
10419;DHT22;5256;48.728;9.140;2023-08-08T13:32:42;20.90;97.70
10419;DHT22;5256;48.728;9.140;2023-08-08T13:35:08;21.10;97.70
10419;DHT22;5256;48.728;9.140;2023-08-08T13:37:34;21.30;97.80
10419;DHT22;5256;48.728;9.140;2023-08-08T13:39:59;21.60;98.10
10419;DHT22;5256;48.728;9.140;2023-08-08T13:42:25;21.80;97.20
10419;DHT22;5256;48.728;9.140;2023-08-08T13:44:50;22.00;96.50
10419;DHT22;5256;48.728;9.140;2023-08-08T13:47:16;22.20;96.70
10419;DHT22;5256;48.728;9.140;2023-08-08T13:49:41;22.20;96.40
10419;DHT22;5256;48.728;9.140;2023-08-08T13:52:08;21.90;96.90
10419;DHT22;5256;48.728;9.140;2023-08-08T13:54:34;22.10;96.80
10419;DHT22;5256;48.728;9.140;2023-08-08T13:56:59;22.00;97.10
10419;DHT22;5256;48.728;9.140;2023-08-08T13:59:25;22.00;97.60
10419;DHT22;5256;48.728;9.140;2023-08-08T14:01:52;21.90;97.60
10419;DHT22;5256;48.728;9.140;2023-08-08T14:04:17;22.30;97.40
10419;DHT22;5256;48.728;9.140;2023-08-08T14:06:43;22.50;96.50
10419;DHT22;5256;48.728;9.140;2023-08-08T14:09:08;22.80;96.60
10419;DHT22;5256;48.728;9.140;2023-08-08T14:11:34;22.90;96.20
10419;DHT22;5256;48.728;9.140;2023-08-08T14:14:00;22.90;96.40
10419;DHT22;5256;48.728;9.140;2023-08-08T14:16:25;22.80;96.30
10419;DHT22;5256;48.728;9.140;2023-08-08T14:18:51;22.40;96.50
10419;DHT22;5256;48.728;9.140;2023-08-08T14:21:16;22.10;97.20
10419;DHT22;5256;48.728;9.140;2023-08-08T14:23:42;21.80;97.30
10419;DHT22;5256;48.728;9.140;2023-08-08T14:26:08;21.60;96.90
10419;DHT22;5256;48.728;9.140;2023-08-08T14:28:33;21.40;97.00
10419;DHT22;5256;48.728;9.140;2023-08-08T14:30:59;21.40;97.40
10419;DHT22;5256;48.728;9.140;2023-08-08T14:33:24;21.40;97.10
10419;DHT22;5256;48.728;9.140;2023-08-08T14:35:50;21.30;96.70
10419;DHT22;5256;48.728;9.140;2023-08-08T14:38:15;20.80;96.70
10419;DHT22;5256;48.728;9.140;2023-08-08T14:40:41;20.60;97.00
10419;DHT22;5256;48.728;9.140;2023-08-08T14:43:07;20.80;97.10
10419;DHT22;5256;48.728;9.140;2023-08-08T14:45:37;20.80;97.30
10419;DHT22;5256;48.728;9.140;2023-08-08T14:48:04;20.80;97.50
10419;DHT22;5256;48.728;9.140;2023-08-08T14:50:30;20.90;97.90
10419;DHT22;5256;48.728;9.140;2023-08-08T14:52:56;21.40;98.40
10419;DHT22;5256;48.728;9.140;2023-08-08T14:55:22;21.80;97.80
10419;DHT22;5256;48.728;9.140;2023-08-08T14:57:47;21.80;97.70
10419;DHT22;5256;48.728;9.140;2023-08-08T15:00:13;21.70;98.00
10419;DHT22;5256;48.728;9.140;2023-08-08T15:02:39;21.30;97.90
10419;DHT22;5256;48.728;9.140;2023-08-08T15:05:04;21.10;98.10
10419;DHT22;5256;48.728;9.140;2023-08-08T15:07:30;21.00;97.60
10419;DHT22;5256;48.728;9.140;2023-08-08T15:09:56;20.80;97.70
10419;DHT22;5256;48.728;9.140;2023-08-08T15:12:21;20.60;97.70
10419;DHT22;5256;48.728;9.140;2023-08-08T15:14:47;20.50;98.20
10419;DHT22;5256;48.728;9.140;2023-08-08T15:17:13;20.50;98.30
10419;DHT22;5256;48.728;9.140;2023-08-08T15:19:39;20.50;98.40
10419;DHT22;5256;48.728;9.140;2023-08-08T15:22:05;20.50;98.20
10419;DHT22;5256;48.728;9.140;2023-08-08T15:24:31;20.70;98.50
10419;DHT22;5256;48.728;9.140;2023-08-08T15:26:58;21.30;98.70
10419;DHT22;5256;48.728;9.140;2023-08-08T15:29:23;22.30;97.70
10419;DHT22;5256;48.728;9.140;2023-08-08T15:31:49;23.60;96.80
10419;DHT22;5256;48.728;9.140;2023-08-08T15:34:14;24.10;96.40
10419;DHT22;5256;48.728;9.140;2023-08-08T15:36:40;23.70;96.50
10419;DHT22;5256;48.728;9.140;2023-08-08T15:39:06;23.10;96.70
10419;DHT22;5256;48.728;9.140;2023-08-08T15:41:31;22.50;96.80
10419;DHT22;5256;48.728;9.140;2023-08-08T15:43:57;22.00;97.20